Corpus Christi, TX

7:24 PM CDT on October 01, 2014 (GMT -0500)
Corpus Christi International | Change Station
CLOSE
Current Station
Airport
Location: Corpus Christi,
Elevation: 43 ft
Nearby Weather Stations

Elev 43 ft 27.77 °N, 97.51 °W | Updated 33 minutes ago

Partly Cloudy
Partly Cloudy
82 °F
Feels Like 89 °F
N
8
Wind Variable Wind from ESE

Today
High -- | Low -- °F
--% Chance of Precip.
Yesterday
High -- | Low -- °F
Precip. -- in
7:22 AM 7:16 PM
First Quarter, 52% visible
Pressure 29.76 in
Visibility 10.0 miles
Clouds Few 1700 ft
Few 15000 ft
Few 25000 ft
Heat Index 89 °F
Dew Point 75 °F
Humidity 79%
Rainfall 0.03 in
Snow Depth Not available.
UV 0 out of 12
Pollen 8.60 out of 12
Ozone Good
Flu Activity Not available.
METAR KCRP 302351Z 11007KT 10SM FEW017 FEW150 FEW250 28/24 A2976 RMK AO2 SLP077 CB DSNT NE TCU DSNT NW T02780239 10306 20278 55002

More Conditions Fewer Conditions

Pressure 29.76 in
Visibility 10.0 miles
Clouds Few 1700 ft
Few 15000 ft
Few 25000 ft
Heat Index 89 °F
Dew Point 75 °F
Humidity 79%
Rainfall 0.03 in
Snow Depth Not available.
UV 0 out of 12
Pollen 8.60 out of 12
Ozone Good
Flu Activity Not available.
METAR KCRP 302351Z 11007KT 10SM FEW017 FEW150 FEW250 28/24 A2976 RMK AO2 SLP077 CB DSNT NE TCU DSNT NW T02780239 10306 20278 55002

More Conditions Fewer Conditions

10-Day Weather Forecast

Almanac

Astronomy

Oct. 01, 2014 Rise Set
Actual Time 7:22 AM CDT 7:16 PM CDT
Civil Twilight 6:59 AM CDT 7:39 PM CDT
Nautical Twilight 6:32 AM CDT 8:06 PM CDT
Astronomical Twilight 6:05 AM CDT 8:33 PM CDT
Moon 2:03 PM CDT (10/1) 12:11 AM CDT (10/1)
Length of Visible Light 12h 39m
Length of Day
11h 53m
Tomorrow will be 1m 38s shorter.
First Quarter, 52% of the Moon is Illuminated
Today
First Quarter
Oct 8
Full
Oct 15
Last Quarter
Oct 23
New
Oct 30
First Quarter

Today's Extremes

State Highs State Lows

Community

WunderPhotos

Upload Photos

1,758,097 photos uploaded!

WunderBlogs® & News

Nearby

Air Quality

  Air Quality AQ Index Pollutant
Yesterday Good
OZONE
Current Good
OZONE
Wednesday Good
OZONE
Wednesday Good
PM10
Thursday Good
OZONE
Thursday Good
PM10
Friday Good
OZONE
Friday Good
PM10
Saturday Good
OZONE
Saturday Good
PM10

Snow Depth

Station Depth Elevation
No new snow has been reported.

Earthquake Activity

City Distance Mag. Time & Date
No recent earthquake activity has been reported nearby.
Minimum magnitude displayed is 2.5.

Coastal Water Temperatures

Place Temperature
Baffin Bay Point of Rocks, TX 87.1 °F
South Bird Island, TX 84.9 °F
Packery Channel, TX 84.9 °F
Port Aransas, TX 82.9 °F
Malaquite Beach (Corpus Christi), TX 84.0 °F

Nearby Weather Stations